NCAR-RAP Real-Time Weather Data

Output produced by METARs form (23 January 2018  15:43 UTC)
found at http://weather.rap.ucar.edu/surface/
 
RJOT 231200Z 29007KT 9999 FEW025 SCT050 M00/M06 Q1016
RJOT 231100Z 29011KT 9999 FEW025 SCT050 M00/M06 Q1015
RJOT 231000Z 30014KT 9999 FEW020 SCT030 BKN050 01/M05 Q1015
RJOT 230900Z 30012KT 9999 FEW020 SCT030 BKN050 02/M03 Q1014
RJOT 230800Z 29010KT 9999 FEW015 SCT030 BKN060 02/M01 Q1014
RJOT 230700Z 30014KT 7000 -SHSN BR FEW007 SCT015 BKN020 02/01 Q1013
RJOT 230643Z 31015KT 4500 -SHSN BR FEW010 SCT020 BKN025 02/00 Q1013 RMK 1CU010 3CU020 5CU025 A2993
RJOT 230606Z 31020G34KT 9999 FEW020 BKN040 04/00 Q1012 RMK 1CU020 5CU040 A2990
RJOT 230600Z 25021G31KT 9999 FEW025 BKN040 06/01 Q1012
RJOT 230500Z 27022G32KT 9999 VCSH FEW015 SCT050 BKN080 05/M00 Q1012
RJOT 230421Z 26017G27KT 230V290 9999 -SHRA FEW008 SCT015 BKN030 04/03 Q1012 RMK 1ST008 3CU015 5CU030 A2989
RJOT 230400Z 29019KT 9999 -SHRASN FEW008 SCT020 BKN030 04/02 Q1012
RJOT 230307Z 27023G33KT 230V300 9999 FEW020 BKN040 07/00 Q1011 RMK 1CU020 6CU040 A2987
RJOT 230300Z 26024KT 9999 FEW020 BKN040 07/M00 Q1011
RJOT 230207Z 26022G32KT 9999 FEW025 BKN040 08/02 Q1011 RMK 1CU025 5CU040 A2988
RJOT 230200Z 26023KT 9999 FEW025 BKN040 07/02 Q1012
RJOT 230104Z 26022G32KT 9999 FEW025 SCT040 08/02 Q1012 RMK 1CU025 3CU040 A2989
RJOT 230100Z 26023KT 9999 FEW025 SCT040 08/02 Q1012
RJOT 230000Z 26017G27KT 9999 FEW020 SCT035 08/03 Q1011
RJOT 222300Z 26021G34KT 9999 VCSH FEW015 SCT030 BKN050 07/04 Q1011
RJOT 222229Z 25017G27KT 9999 FEW015 SCT030 BKN050 07/05 Q1011 RMK 1CU015 3CU030 5SC050 A2986
RJOT 222200Z 25014KT 9999 VCSH FEW015 SCT030 BKN050 06/05 Q1010
RJOT 222120Z 25015KT 9999 FEW015 SCT035 BKN050 06/04 Q1010 RMK 1CU015 4CU035 6SC050 A2984
RJOT 221200Z 23007KT 9999 FEW002 SCT020 01/01 Q1012
RJOT 221124Z 25011KT 7000 BR FEW002 00/00 Q1012 RMK 1ST002 A2990
RJOT 221114Z 25008KT 4000 BR FEW002 M00/M00 Q1012 RMK 1ST002 A2990
RJOT 221100Z 28007KT 3000 BR FEW001 SCT003 00/00 Q1012
RJOT 221046Z 25007KT 2500 BR FEW000 SCT002 BKN003 00/00 Q1012 RMK 1ST000 3ST002 5ST003 A2991
RJOT 221043Z 25007KT 1500 R26///// BR FEW000 SCT002 BKN003 00/00 Q1012 RMK 1ST000 3ST002 5ST003 A2991
RJOT 221041Z 25007KT 1000 R26///// BR FEW000 SCT002 BKN003 00/00 Q1012 RMK 1ST000 3ST002 5ST003 A2991
RJOT 221037Z 26007KT 0800 R26///// FG FEW000 SCT001 BKN003 00/00 Q1012 RMK 1ST000 3ST001 5ST003 A2991
RJOT 221036Z 27007KT 0700 R26///// FG FEW000 SCT001 BKN003 M00/M00 Q1012 RMK 1ST000 3ST001 5ST003 A2991
RJOT 221034Z 27008KT 0400 R26///// FG FEW000 SCT001 BKN003 M00/M00 Q1012 RMK 1ST000 3ST001 5ST003 A2991
RJOT 221023Z 26006KT 0200 R26///// FG FEW000 SCT001 BKN003 00/00 Q1013 RMK 1ST000 3ST001 5ST003 A2991
RJOT 221022Z 26006KT 0400 R26///// FG FEW000 SCT002 BKN003 00/00 Q1013 RMK 1ST000 3ST002 5ST003 A2991
RJOT 221021Z 26006KT 2000 BR FEW000 SCT003 BKN005 M00/M00 Q1013 RMK 1ST000 3ST003 5ST005 A2991
RJOT 221017Z 26007KT 4000 BR FEW003 M01/M01 Q1012 RMK 1ST003 A2991
RJOT 221000Z 26007KT 7000 FEW003 M00/M00 Q1012
RJOT 220900Z 23005KT 8000 FEW003 01/01 Q1012
RJOT 220849Z 23005KT 5000 BR FEW001 SCT010 01/01 Q1011 RMK 1ST001 3ST010 A2988
RJOT 220837Z 23003KT 4000 BR FEW001 SCT010 BKN035 01/01 Q1011 RMK 1ST001 3ST010 5CU035 A2988
RJOT 220829Z 22003KT 3000 -RASN BR FEW001 SCT005 BKN010 01/01 Q1011 RMK 1ST001 3ST005 5ST010 A2988
RJOT 220823Z 22003KT 3000 -RASN BR FEW001 SCT003 BKN005 01/01 Q1011 RMK 1ST001 3ST003 5ST005 A2988
RJOT 220811Z 23004KT 2000 -SN BR FEW001 SCT002 BKN004 01/01 Q1012 RMK 1ST001 3ST002 5ST004 A2988 4000N
RJOT 220803Z 24004KT 1500 R26///// -SN BR FEW000 SCT001 BKN003 01/01 Q1011 RMK 1ST000 3ST001 5ST003 A2988 3000N
RJOT 220800Z 24005KT 1200 R26///// -SN BR FEW000 SCT001 BKN002 01/01 Q1012
RJOT 220750Z 26005KT 0800 R26///// -SN FG FEW000 SCT001 BKN003 01/01 Q1012 RMK 1ST000 3ST001 5ST003 A2990
RJOT 220744Z 26005KT 0900 R26///// -SN FG FEW000 SCT001 BKN003 00/00 Q1012 RMK 1ST000 3ST001 5ST003 A2989
RJOT 220737Z 27004KT 1200 R26///// -SN BR FEW000 SCT001 BKN003 00/00 Q1012 RMK 1ST000 3ST001 5ST003 A2989
RJOT 220723Z 32003KT 290V360 1000 R26///// -SN FEW000 SCT001 BKN002 00/00 Q1012 RMK 1ST000 3ST001 5ST002 A2989
RJOT 220714Z 33005KT 1200 R26///// -SN FEW000 SCT001 BKN002 01/01 Q1011 RMK 1ST000 3ST001 5ST002 A2988
RJOT 220706Z 33005KT 280V360 1500 R26///// -SN FEW001 SCT002 BKN003 01/01 Q1011 RMK 1ST001 3ST002 5ST003 A2988
RJOT 220700Z 34004KT 2000 -SN FEW001 SCT002 BKN003 01/01 Q1011
RJOT 220643Z 34006KT 3000 -SNRA BR FEW001 SCT002 BKN005 01/01 Q1011 RMK 1ST001 3ST002 5ST005 A2987
RJOT 220622Z 36007KT 4000 -SNRA BR FEW001 SCT002 BKN005 02/02 Q1011 RMK 1ST001 3ST002 5ST005 A2986
RJOT 220619Z 01006KT 4500 -SNRA BR FEW002 SCT005 BKN008 02/02 Q1011 RMK 1ST002 3ST005 5ST008 A2986
RJOT 220600Z 03006KT 8000 -SNRA FEW002 SCT005 BKN008 02/02 Q1010
RJOT 220500Z 06006KT 8000 -SNRA FEW002 SCT005 BKN015 02/02 Q1010
RJOT 220400Z 10003KT 8000 -SNRA FEW005 SCT010 BKN015 02/02 Q1011
RJOT 220300Z 14003KT 040V220 9999 -RASN FEW005 SCT010 BKN015 02/02 Q1013
RJOT 220200Z 11006KT 080V150 9999 -RASN FEW005 SCT015 BKN035 04/03 Q1014
RJOT 220100Z 08005KT 050V120 9999 VCSH FEW010 SCT030 BKN045 05/04 Q1015
RJOT 220000Z 07005KT 9999 -RA FEW020 SCT050 BKN080 04/03 Q1015
RJOT 212300Z 09004KT 9999 VCSH FEW020 SCT050 BKN080 04/03 Q1016
RJOT 212200Z 14004KT 9999 FEW020 SCT050 BKN080 03/01 Q1015
RJOT 212120Z 13003KT 080V160 9999 FEW020 SCT050 BKN100 03/01 Q1016 RMK 1CU020 3SC050 6AC100 A3001
RJOT 211200Z 14005KT 9999 FEW030 SCT150 BKN170 05/01 Q1020
RJOT 211100Z 14005KT 110V170 9999 FEW040 BKN/// 06/02 Q1021
RJOT 211000Z VRB02KT 9999 FEW040 BKN/// 06/02 Q1020
RJOT 210900Z 23003KT 9999 FEW040 BKN/// 06/02 Q1020
RJOT 210800Z 28005KT 9999 FEW040 SCT/// 07/02 Q1019
RJOT 210700Z 29011KT 260V330 9999 FEW040 BKN/// 09/01 Q1019
RJOT 210600Z 28010KT 9999 FEW020 SCT040 10/01 Q1019
RJOT 210500Z 28011KT 250V320 9999 FEW040 10/01 Q1018
RJOT 210400Z 29013KT 250V310 9999 FEW040 09/01 Q1019